Time;durP1;ratioP1;P1;durP2;ratioP2;P2;SDS_P1;SDS_P2;PMS_P1;PMS_P2;Temp;Humidity;BMP_temperature;BMP_pressure;BME280_temperature;BME280_humidity;BME280_pressure;Samples;Min_cycle;Max_cycle;Signal;HPM_P1;HPM_P2
2023/04/27 00:02:18;;;;;;;0.50;0.50;;;;;;;23.87;33.94;99132.92;1887828;75;28116;-48
2023/04/27 00:05:08;;;;;;;0.40;0.40;;;;;;;23.88;33.93;99137.31;1885951;75;28099;-53
2023/04/27 00:07:57;;;;;;;0.40;0.40;;;;;;;23.88;33.93;99139.52;1895084;75;28116;-51
2023/04/27 00:10:45;;;;;;;0.50;0.50;;;;;;;23.89;33.92;99140.36;1880790;75;28089;-52
2023/04/27 00:13:33;;;;;;;0.60;0.60;;;;;;;23.87;34.00;99130.19;1901195;75;28055;-50
2023/04/27 00:16:21;;;;;;;0.50;0.50;;;;;;;23.88;33.96;99124.44;1897075;75;28112;-53
2023/04/27 00:19:09;;;;;;;0.50;0.50;;;;;;;23.87;33.99;99130.19;1881760;75;28064;-50
2023/04/27 00:21:58;;;;;;;0.50;0.50;;;;;;;23.87;33.99;99128.81;1869137;76;28052;-54
2023/04/27 00:24:47;;;;;;;0.60;0.60;;;;;;;23.87;34.03;99120.05;1890585;75;28188;-51
2023/04/27 00:27:35;;;;;;;0.68;0.68;;;;;;;23.88;33.97;99119.48;1873286;75;28337;-49
2023/04/27 00:30:24;;;;;;;0.57;0.57;;;;;;;23.91;33.93;99121.73;1873205;75;28108;-53
2023/04/27 00:33:14;;;;;;;0.60;0.60;;;;;;;23.88;34.00;99123.59;1877590;75;28117;-51
2023/04/27 00:36:03;;;;;;;0.50;0.50;;;;;;;23.90;34.02;99118.69;1896906;75;28076;-51
2023/04/27 00:38:51;;;;;;;0.68;0.50;;;;;;;23.89;34.03;99112.93;1900122;75;31025;-53
2023/04/27 00:41:39;;;;;;;0.50;0.50;;;;;;;23.91;34.02;99110.77;1880243;75;28103;-49
2023/04/27 00:44:28;;;;;;;0.50;0.30;;;;;;;23.90;34.00;99107.71;1899734;75;28118;-51
2023/04/27 00:47:17;;;;;;;0.50;0.50;;;;;;;23.92;33.97;99112.44;1897993;75;28095;-52
2023/04/27 00:50:12;;;;;;;0.50;0.50;;;;;;;23.91;34.00;99101.16;1880464;75;28603;-52
2023/04/27 00:52:57;;;;;;;0.70;0.70;;;;;;;23.92;33.98;99104.20;1871257;75;28121;-51
2023/04/27 00:55:47;;;;;;;0.40;0.40;;;;;;;23.93;33.98;99101.73;1873836;75;28155;-48
2023/04/27 00:58:36;;;;;;;0.50;0.50;;;;;;;23.92;34.01;99110.50;1887962;75;28185;-53
2023/04/27 01:01:24;;;;;;;0.50;0.50;;;;;;;23.90;34.04;99100.86;1884721;75;28236;-53
2023/04/27 01:04:13;;;;;;;0.50;0.50;;;;;;;23.91;34.00;99099.78;1862347;75;28080;-51
2023/04/27 01:07:01;;;;;;;0.50;0.50;;;;;;;23.90;34.04;99101.69;1894345;75;28603;-50
2023/04/27 01:09:50;;;;;;;0.50;0.50;;;;;;;23.87;34.08;99098.11;1856722;75;27994;-47
2023/04/27 01:12:39;;;;;;;0.80;0.45;;;;;;;23.90;34.08;99099.48;1896419;75;28055;-48
2023/04/27 01:15:28;;;;;;;0.40;0.40;;;;;;;23.90;34.05;99103.59;1863669;75;28142;-51
2023/04/27 01:18:17;;;;;;;0.53;0.53;;;;;;;23.92;34.07;99106.95;1896147;75;28127;-52
2023/04/27 01:21:06;;;;;;;0.62;0.62;;;;;;;23.83;34.04;99095.55;1901419;75;28069;-51
2023/04/27 01:23:54;;;;;;;0.43;0.43;;;;;;;23.92;34.01;99108.31;1879689;75;28215;-54
2023/04/27 01:26:43;;;;;;;1.10;0.60;;;;;;;23.91;34.08;99111.59;1876486;75;28533;-48
2023/04/27 01:29:31;;;;;;;0.50;0.50;;;;;;;23.92;34.07;99111.06;1880891;75;28184;-53
2023/04/27 01:32:20;;;;;;;0.50;0.50;;;;;;;23.91;34.05;99114.88;1901189;75;28055;-50
2023/04/27 01:35:11;;;;;;;0.60;0.50;;;;;;;23.92;34.04;99109.13;1901192;75;28069;-46
2023/04/27 01:38:00;;;;;;;0.50;0.50;;;;;;;23.91;34.06;99109.39;1863765;75;28197;-51
2023/04/27 01:40:48;;;;;;;0.45;0.45;;;;;;;23.92;34.09;99106.95;1900516;75;28173;-48
2023/04/27 01:43:37;;;;;;;0.23;0.23;;;;;;;23.92;34.10;99111.06;1871028;75;28052;-48
2023/04/27 01:46:25;;;;;;;0.55;0.55;;;;;;;23.92;34.07;99117.35;1879265;75;28060;-48
2023/04/27 01:49:14;;;;;;;0.50;0.50;;;;;;;23.94;34.06;99117.93;1864547;75;28088;-52
2023/04/27 01:52:02;;;;;;;0.40;0.40;;;;;;;23.93;34.03;99116.82;1867810;75;28177;-50
2023/04/27 01:54:51;;;;;;;0.42;0.42;;;;;;;23.92;34.07;99124.21;1879630;75;28189;-52
2023/04/27 01:57:39;;;;;;;0.40;0.40;;;;;;;23.91;34.09;99123.94;1880900;75;28116;-51
2023/04/27 02:00:27;;;;;;;0.57;0.57;;;;;;;23.94;34.08;99132.21;1862872;75;28323;-50
2023/04/27 02:03:16;;;;;;;0.50;0.50;;;;;;;23.94;34.09;99130.84;1874724;75;28082;-50
2023/04/27 02:06:05;;;;;;;0.50;0.50;;;;;;;23.93;34.03;99136.02;1868677;75;28233;-50
2023/04/27 02:08:53;;;;;;;0.40;0.40;;;;;;;23.93;34.01;99142.88;1894873;75;28095;-51
2023/04/27 02:11:41;;;;;;;0.90;0.40;;;;;;;23.92;33.94;99144.78;1885665;75;28202;-49
2023/04/27 02:14:29;;;;;;;0.60;0.60;;;;;;;23.91;34.00;99141.77;1884294;75;28122;-51
2023/04/27 02:17:17;;;;;;;0.50;0.50;;;;;;;23.93;33.98;99145.09;1861385;75;28068;-50
2023/04/27 02:20:08;;;;;;;0.40;0.40;;;;;;;23.96;33.93;99156.11;1894813;75;28091;-50
2023/04/27 02:22:57;;;;;;;0.40;0.40;;;;;;;23.93;33.96;99162.92;1882414;75;28138;-53
2023/04/27 02:25:47;;;;;;;0.40;0.40;;;;;;;23.96;33.93;99164.34;1874355;75;28068;-49
2023/04/27 02:28:35;;;;;;;0.50;0.50;;;;;;;23.96;33.94;99167.92;1872242;75;28154;-49
2023/04/27 02:31:23;;;;;;;0.90;0.60;;;;;;;23.96;33.89;99163.80;1892274;75;28225;-52
2023/04/27 02:34:12;;;;;;;0.40;0.40;;;;;;;23.92;33.96;99160.44;1888838;75;28056;-53
2023/04/27 02:37:00;;;;;;;0.35;0.35;;;;;;;23.93;33.99;99167.58;1876902;75;28137;-54
2023/04/27 02:39:49;;;;;;;0.40;0.40;;;;;;;23.91;34.06;99168.37;1799681;78;28189;-53
2023/04/27 02:42:37;;;;;;;1.20;0.60;;;;;;;23.85;34.18;99163.90;1799450;78;28343;-51
2023/04/27 02:45:27;;;;;;;0.50;0.50;;;;;;;23.87;34.09;99161.73;1807933;78;28308;-52
2023/04/27 02:48:15;;;;;;;2.35;0.47;;;;;;;23.91;34.02;99160.98;1804601;78;28323;-50
2023/04/27 02:51:04;;;;;;;0.50;0.50;;;;;;;23.90;34.05;99162.05;1803899;78;28194;-52
2023/04/27 02:53:53;;;;;;;0.50;0.50;;;;;;;23.92;33.92;99164.56;1834500;77;28173;-50
2023/04/27 02:56:42;;;;;;;0.65;0.65;;;;;;;23.92;33.92;99164.56;1830170;77;28242;-50
2023/04/27 02:59:30;;;;;;;0.90;0.53;;;;;;;23.90;34.05;99161.20;1802293;77;28431;-51
2023/04/27 03:02:18;;;;;;;1.00;0.43;;;;;;;23.91;34.04;99168.37;1815146;78;27865;-53
2023/04/27 03:05:07;;;;;;;2.00;0.60;;;;;;;23.91;34.08;99164.25;1844601;76;28211;-51
2023/04/27 03:07:56;;;;;;;0.42;0.42;;;;;;;23.88;34.06;99161.47;1864114;76;28092;-52
2023/04/27 03:10:45;;;;;;;0.65;0.53;;;;;;;23.87;34.08;99157.62;1889291;75;28165;-48
2023/04/27 03:13:40;;;;;;;1.15;0.60;;;;;;;23.86;34.16;99169.13;1895653;75;27963;-49
2023/04/27 03:16:24;;;;;;;1.00;0.40;;;;;;;23.89;34.11;99167.80;1876029;75;28227;-53
2023/04/27 03:19:12;;;;;;;0.40;0.40;;;;;;;23.87;34.11;99163.10;1889196;75;28196;-48
2023/04/27 03:22:00;;;;;;;0.27;0.27;;;;;;;23.88;34.09;99164.75;1894272;75;28587;-49
2023/04/27 03:24:49;;;;;;;0.30;0.30;;;;;;;23.88;34.16;99160.09;1900414;75;28176;-48
2023/04/27 03:27:38;;;;;;;0.60;0.50;;;;;;;23.84;34.22;99167.17;1896479;75;28545;-49
2023/04/27 03:30:26;;;;;;;0.50;0.50;;;;;;;23.87;34.15;99169.96;1869051;76;28172;-54
2023/04/27 03:33:14;;;;;;;0.50;0.50;;;;;;;23.87;34.22;99169.96;1888912;75;28076;-51
2023/04/27 03:36:04;;;;;;;0.50;0.50;;;;;;;23.87;34.24;99174.08;1879638;75;28117;-50
2023/04/27 03:38:52;;;;;;;0.60;0.60;;;;;;;23.85;34.25;99168.02;1885174;75;28697;-48
2023/04/27 03:41:41;;;;;;;1.30;0.50;;;;;;;23.87;34.26;99162.56;1862440;76;28227;-51
2023/04/27 03:44:35;;;;;;;0.50;0.50;;;;;;;23.88;34.17;99156.52;1881511;75;28155;-48
2023/04/27 03:47:19;;;;;;;0.40;0.40;;;;;;;23.86;34.19;99154.03;1890147;75;28094;-51
2023/04/27 03:50:09;;;;;;;0.55;0.55;;;;;;;23.86;34.25;99154.56;1868907;76;28243;-53
2023/04/27 03:52:57;;;;;;;0.60;0.60;;;;;;;23.85;34.18;99155.67;1878553;75;28047;-47
2023/04/27 03:55:46;;;;;;;0.70;0.70;;;;;;;23.86;34.25;99153.20;1893674;75;28053;-50
2023/04/27 03:58:35;;;;;;;0.60;0.60;;;;;;;23.85;34.29;99160.59;1894711;75;28099;-54
2023/04/27 04:01:35;;;;;;;1.47;0.78;;;;;;;23.84;34.34;99162.22;1868953;76;28068;-50
2023/04/27 04:04:24;;;;;;;0.53;0.53;;;;;;;23.82;34.39;99160.28;1868901;76;28162;-49
2023/04/27 04:07:13;;;;;;;1.20;0.78;;;;;;;23.82;34.36;99156.16;1887996;75;28095;-49
2023/04/27 04:10:01;;;;;;;0.70;0.70;;;;;;;23.78;34.43;99155.01;1902079;75;28144;-48
2023/04/27 04:12:50;;;;;;;0.60;0.60;;;;;;;23.68;34.49;99141.13;1896382;75;28052;-51
2023/04/27 04:15:38;;;;;;;0.60;0.60;;;;;;;23.78;34.43;99166.78;1897611;75;28096;-47
2023/04/27 04:18:27;;;;;;;0.70;0.50;;;;;;;23.79;34.47;99170.37;1897957;75;28107;-50
2023/04/27 04:21:15;;;;;;;0.62;0.62;;;;;;;23.76;34.48;99175.81;1896592;75;28105;-48
2023/04/27 04:24:04;;;;;;;0.60;0.60;;;;;;;23.77;34.47;99182.13;1868910;76;28091;-50
2023/04/27 04:26:52;;;;;;;0.60;0.60;;;;;;;23.74;34.48;99178.51;1890665;75;28146;-51
2023/04/27 04:29:41;;;;;;;0.65;0.65;;;;;;;23.75;34.48;99176.06;1893474;75;28092;-52
2023/04/27 04:32:30;;;;;;;0.62;0.40;;;;;;;23.74;34.52;99177.14;1895533;75;28052;-52
2023/04/27 04:35:18;;;;;;;0.60;0.60;;;;;;;23.75;34.61;99179.66;1880826;75;28095;-51
2023/04/27 04:38:08;;;;;;;0.70;0.70;;;;;;;23.75;34.59;99181.55;1893756;75;28091;-51
2023/04/27 04:40:56;;;;;;;0.50;0.50;;;;;;;23.77;34.59;99184.87;1893616;75;28108;-50
2023/04/27 04:43:48;;;;;;;0.55;0.55;;;;;;;23.76;34.61;99186.78;1895940;75;28056;-49
2023/04/27 04:46:37;;;;;;;0.45;0.45;;;;;;;23.77;34.60;99187.08;1880075;75;28165;-52
2023/04/27 04:49:26;;;;;;;0.50;0.50;;;;;;;23.77;34.66;99193.10;1899578;75;28126;-51
2023/04/27 04:52:14;;;;;;;0.50;0.50;;;;;;;23.75;34.63;99198.02;1897887;75;28099;-51
2023/04/27 04:55:03;;;;;;;0.80;0.80;;;;;;;23.75;34.64;99198.84;1887349;75;28102;-51
2023/04/27 04:57:51;;;;;;;0.50;0.50;;;;;;;23.74;34.66;99201.81;1896250;75;28197;-54
2023/04/27 05:00:40;;;;;;;0.60;0.60;;;;;;;23.76;34.68;99203.77;1898477;75;28497;-49
2023/04/27 05:03:28;;;;;;;0.80;0.80;;;;;;;23.72;34.72;99203.45;1901320;75;28075;-50
2023/04/27 05:06:16;;;;;;;0.77;0.77;;;;;;;23.76;34.63;99203.77;1869198;76;28253;-49
2023/04/27 05:09:05;;;;;;;0.90;0.90;;;;;;;23.76;34.61;99213.37;1873878;75;28079;-48
2023/04/27 05:11:53;;;;;;;0.75;0.60;;;;;;;23.69;34.67;99209.42;1896672;75;28091;-47
2023/04/27 05:14:43;;;;;;;0.62;0.62;;;;;;;23.74;34.61;99205.41;1869000;76;28129;-49
2023/04/27 05:17:31;;;;;;;1.00;0.70;;;;;;;23.74;34.59;99208.14;1868964;76;28096;-52
2023/04/27 05:20:19;;;;;;;0.62;0.62;;;;;;;23.74;34.64;99207.30;1889272;75;28166;-52
2023/04/27 05:23:07;;;;;;;0.65;0.65;;;;;;;23.74;34.71;99211.42;1878980;75;28094;-51
2023/04/27 05:25:56;;;;;;;0.60;0.60;;;;;;;23.72;34.73;99217.16;1885782;75;28111;-50
2023/04/27 05:28:45;;;;;;;0.60;0.57;;;;;;;23.72;34.70;99227.30;1869098;76;28098;-52
2023/04/27 05:31:34;;;;;;;1.00;0.90;;;;;;;23.65;34.14;99222.52;1888576;75;28091;-52
2023/04/27 05:34:23;;;;;;;0.50;0.50;;;;;;;23.58;33.86;99224.58;1891847;74;28204;-54
2023/04/27 05:37:12;;;;;;;1.07;0.53;;;;;;;23.55;33.97;99219.05;1870851;74;28180;-53
2023/04/27 05:40:00;;;;;;;0.60;0.60;;;;;;;23.59;33.75;99211.17;1897341;75;28123;-52
2023/04/27 05:42:49;;;;;;;0.70;0.62;;;;;;;23.60;33.60;99212.82;1895026;75;28169;-51
2023/04/27 05:45:40;;;;;;;0.57;0.57;;;;;;;23.62;33.48;99220.28;1889461;75;28126;-51
2023/04/27 05:48:28;;;;;;;1.75;0.90;;;;;;;23.61;33.45;99224.93;1886094;75;28202;-52
2023/04/27 05:51:17;;;;;;;0.75;0.75;;;;;;;23.61;33.39;99224.93;1867948;76;28079;-52
2023/04/27 05:54:05;;;;;;;0.90;0.72;;;;;;;23.61;33.38;99219.45;1882969;75;28170;-53
2023/04/27 05:56:54;;;;;;;0.62;0.62;;;;;;;23.62;33.32;99223.03;1868185;76;28285;-51
2023/04/27 05:59:43;;;;;;;0.80;0.80;;;;;;;23.61;33.29;99233.16;1869159;76;28108;-51
2023/04/27 06:02:31;;;;;;;0.80;0.80;;;;;;;23.62;33.26;99234.00;1891593;75;28087;-55
2023/04/27 06:05:20;;;;;;;0.80;0.80;;;;;;;23.62;33.24;99229.32;1876522;75;28348;-48
2023/04/27 06:08:08;;;;;;;0.88;0.88;;;;;;;23.63;33.21;99237.02;1893520;75;28197;-52
2023/04/27 06:10:57;;;;;;;1.05;0.95;;;;;;;23.63;33.18;99232.37;1894461;75;28155;-51
2023/04/27 06:13:45;;;;;;;1.10;1.10;;;;;;;23.63;33.09;99249.35;1882179;75;28069;-53
2023/04/27 06:16:34;;;;;;;0.90;0.90;;;;;;;23.61;33.09;99250.98;1892474;75;28440;-48
2023/04/27 06:19:22;;;;;;;0.93;0.93;;;;;;;23.62;33.05;99253.19;1886517;75;28095;-49
2023/04/27 06:22:11;;;;;;;1.35;1.15;;;;;;;23.63;32.99;99257.05;1896618;75;28102;-50
2023/04/27 06:24:59;;;;;;;1.00;0.90;;;;;;;23.62;33.01;99260.05;1887465;75;28172;-51
2023/04/27 06:27:48;;;;;;;1.57;1.47;;;;;;;23.61;32.87;99257.84;1895882;75;28141;-51
2023/04/27 06:30:36;;;;;;;0.90;0.90;;;;;;;23.60;32.08;99256.69;1871354;75;28133;-51
2023/04/27 06:33:24;;;;;;;1.75;1.07;;;;;;;23.52;32.57;99246.98;1879557;75;28158;-50
2023/04/27 06:36:12;;;;;;;2.10;1.02;;;;;;;23.63;32.59;99257.05;1867269;75;28106;-47
2023/04/27 06:39:01;;;;;;;1.12;1.07;;;;;;;23.64;32.38;99256.52;1881491;75;28119;-50
2023/04/27 06:41:49;;;;;;;0.77;0.77;;;;;;;23.67;32.52;99258.73;1870583;75;28153;-52
2023/04/27 06:44:39;;;;;;;2.25;0.78;;;;;;;23.67;32.67;99262.85;1873514;75;28166;-49
2023/04/27 06:47:28;;;;;;;1.25;0.70;;;;;;;23.65;32.76;99260.37;1866618;75;28150;-49
2023/04/27 06:50:16;;;;;;;0.80;0.80;;;;;;;23.67;32.89;99249.14;1895953;75;28066;-51
2023/04/27 06:53:05;;;;;;;0.70;0.70;;;;;;;23.67;33.03;99246.40;1856805;77;28670;-51
2023/04/27 06:55:53;;;;;;;0.80;0.70;;;;;;;23.67;33.15;99246.40;1861568;76;28048;-51
2023/04/27 06:58:42;;;;;;;0.80;0.80;;;;;;;23.67;33.27;99244.50;1896631;75;38406;-53
2023/04/27 07:01:30;;;;;;;2.10;0.88;;;;;;;23.66;33.54;99239.27;1890127;75;28100;-47
2023/04/27 07:04:19;;;;;;;0.80;0.80;;;;;;;23.66;33.57;99242.85;1879245;75;28122;-50
2023/04/27 07:07:08;;;;;;;0.75;0.75;;;;;;;23.67;33.77;99241.75;1884389;75;28091;-47
2023/04/27 07:09:56;;;;;;;1.40;1.10;;;;;;;23.65;33.78;99232.95;1868097;75;28137;-47
2023/04/27 07:12:45;;;;;;;0.80;0.80;;;;;;;23.58;34.18;99232.27;1865289;75;28139;-51
2023/04/27 07:15:34;;;;;;;0.75;0.75;;;;;;;23.64;34.30;99229.09;1892880;75;28148;-49
2023/04/27 07:18:23;;;;;;;0.68;0.68;;;;;;;23.65;34.45;99238.97;1885394;75;28141;-49
2023/04/27 07:21:12;;;;;;;0.82;0.82;;;;;;;23.69;34.41;99226.41;1870361;75;28170;-48
2023/04/27 07:24:00;;;;;;;0.68;0.68;;;;;;;23.71;34.36;99217.42;1877621;75;28146;-50
2023/04/27 07:26:48;;;;;;;0.82;0.82;;;;;;;23.70;34.37;99221.23;1888765;75;38393;-48
2023/04/27 07:29:36;;;;;;;2.00;0.80;;;;;;;23.69;34.43;99223.14;1896884;75;28168;-50
2023/04/27 07:32:25;;;;;;;1.20;0.90;;;;;;;23.65;34.50;99219.23;1886039;75;28093;-49
2023/04/27 07:35:13;;;;;;;0.82;0.82;;;;;;;23.69;34.56;99220.92;1868667;76;28152;-50
2023/04/27 07:38:03;;;;;;;0.70;0.70;;;;;;;23.70;34.59;99223.98;1889394;75;28173;-47
2023/04/27 07:40:53;;;;;;;0.82;0.82;;;;;;;23.69;34.61;99229.99;1883837;75;28112;-51
2023/04/27 07:43:42;;;;;;;1.87;0.70;;;;;;;23.68;34.71;99221.49;1884286;75;28201;-48
2023/04/27 07:46:30;;;;;;;0.78;0.78;;;;;;;23.68;34.69;99216.00;1879671;75;28130;-52
2023/04/27 07:49:19;;;;;;;0.72;0.72;;;;;;;23.68;34.77;99206.94;1863613;75;28219;-50
2023/04/27 07:52:07;;;;;;;0.75;0.72;;;;;;;23.68;34.80;99208.31;1867896;76;28111;-49
2023/04/27 07:54:56;;;;;;;0.80;0.80;;;;;;;23.68;34.80;99205.04;1868849;76;28194;-50
2023/04/27 07:57:45;;;;;;;0.50;0.50;;;;;;;23.69;34.83;99205.84;1876555;75;28084;-48
2023/04/27 08:00:33;;;;;;;0.78;0.65;;;;;;;23.68;34.87;99200.09;1882820;75;28079;-46
2023/04/27 08:03:21;;;;;;;1.20;0.72;;;;;;;23.70;34.86;99199.30;1895952;75;28067;-47
2023/04/27 08:06:09;;;;;;;1.40;0.72;;;;;;;23.69;34.88;99201.73;1857028;77;28155;-48
2023/04/27 08:08:59;;;;;;;0.75;0.70;;;;;;;23.70;34.85;99198.76;1879125;75;28604;-48
2023/04/27 08:11:48;;;;;;;0.75;0.75;;;;;;;23.70;34.92;99188.33;1900760;74;28259;-49
2023/04/27 08:14:36;;;;;;;0.85;0.85;;;;;;;23.71;34.88;99184.52;1901680;75;28094;-48
2023/04/27 08:17:25;;;;;;;0.80;0.80;;;;;;;23.72;34.87;99190.27;1889753;74;28103;-48
2023/04/27 08:20:14;;;;;;;0.70;0.70;;;;;;;23.73;34.85;99197.43;1882594;74;28377;-49
2023/04/27 08:23:02;;;;;;;1.50;0.80;;;;;;;23.71;34.86;99197.66;1876862;76;28211;-50
2023/04/27 08:25:50;;;;;;;0.62;0.62;;;;;;;23.71;34.88;99190.80;1888903;75;28086;-52
2023/04/27 08:28:39;;;;;;;1.50;0.82;;;;;;;23.70;34.87;99186.42;1901381;75;28172;-47
2023/04/27 08:31:27;;;;;;;0.80;0.80;;;;;;;23.74;34.85;99183.99;1900991;75;28083;-47
2023/04/27 08:34:17;;;;;;;0.95;0.70;;;;;;;23.71;34.85;99182.58;1901111;75;28124;-48
2023/04/27 08:37:05;;;;;;;0.62;0.62;;;;;;;23.71;34.83;99174.35;1878034;76;28146;-49
2023/04/27 08:39:53;;;;;;;0.90;0.90;;;;;;;23.73;34.81;99170.84;1898730;75;28169;-50
2023/04/27 08:42:45;;;;;;;1.72;1.05;;;;;;;23.73;34.82;99163.16;1900507;75;28207;-45
2023/04/27 08:45:33;;;;;;;0.80;0.80;;;;;;;23.74;34.82;99164.80;1898851;74;28160;-51
2023/04/27 08:48:21;;;;;;;0.80;0.80;;;;;;;23.75;34.80;99164.56;1877814;76;28092;-51
2023/04/27 08:51:12;;;;;;;0.53;0.53;;;;;;;23.75;34.81;99163.73;1901095;74;34131;-47
2023/04/27 08:54:00;;;;;;;0.90;0.90;;;;;;;23.75;34.81;99163.73;1902572;74;28110;-50
2023/04/27 08:56:49;;;;;;;0.70;0.70;;;;;;;23.74;34.83;99164.80;1901492;75;28123;-49
2023/04/27 08:59:39;;;;;;;0.70;0.70;;;;;;;23.76;34.80;99159.35;1878136;76;28150;-49
2023/04/27 09:02:28;;;;;;;0.90;0.90;;;;;;;23.75;34.81;99150.85;1900210;74;28110;-47
2023/04/27 09:05:22;;;;;;;1.02;0.93;;;;;;;23.77;34.81;99149.22;1892607;75;28071;-47
2023/04/27 09:08:10;;;;;;;0.90;0.90;;;;;;;23.78;34.80;99142.10;1902426;75;28202;-51
2023/04/27 09:10:59;;;;;;;3.10;0.80;;;;;;;23.76;34.81;99144.27;1877667;76;28263;-51
2023/04/27 09:13:47;;;;;;;0.90;0.90;;;;;;;23.79;34.80;99149.80;1868526;76;28166;-50
2023/04/27 09:16:35;;;;;;;0.80;0.80;;;;;;;23.78;34.82;99151.70;1868821;75;28105;-46
2023/04/27 09:19:30;;;;;;;0.80;0.80;;;;;;;23.78;34.82;99152.27;1897141;75;28154;-48
2023/04/27 09:22:18;;;;;;;0.70;0.70;;;;;;;23.80;34.78;99153.68;1868741;76;28087;-49
2023/04/27 09:25:08;;;;;;;0.72;0.72;;;;;;;23.81;34.85;99155.32;1868919;76;28134;-49
2023/04/27 09:27:58;;;;;;;0.88;0.85;;;;;;;23.79;34.82;99151.17;1890407;75;28225;-48
2023/04/27 09:30:52;;;;;;;0.90;0.90;;;;;;;23.80;34.85;99153.68;1895555;75;28060;-49
2023/04/27 09:33:40;;;;;;;1.20;1.10;;;;;;;23.78;34.90;99152.27;1868550;76;28143;-46
2023/04/27 09:36:31;;;;;;;0.70;0.70;;;;;;;23.81;34.87;99159.97;1873100;75;28128;-51
2023/04/27 09:39:20;;;;;;;1.05;0.80;;;;;;;23.80;34.87;99147.36;1898574;75;28161;-48
2023/04/27 09:42:08;;;;;;;0.90;0.90;;;;;;;23.81;34.87;99149.00;1896908;75;28147;-48
2023/04/27 09:44:58;;;;;;;0.90;0.90;;;;;;;23.82;34.87;99149.30;1868857;76;28166;-50
2023/04/27 09:47:47;;;;;;;1.17;0.80;;;;;;;23.81;34.88;99159.97;1874182;75;28168;-47
2023/04/27 09:50:40;;;;;;;0.70;0.70;;;;;;;23.80;34.89;99163.81;1879955;75;28138;-48
2023/04/27 09:53:34;;;;;;;0.98;0.98;;;;;;;23.82;34.90;99157.53;1885631;75;28087;-51
2023/04/27 09:56:53;;;;;;;0.70;0.70;;;;;;;23.80;34.93;99154.21;1868884;76;28134;-48
2023/04/27 09:59:44;;;;;;;1.60;0.80;;;;;;;23.79;34.94;99153.91;1868704;76;28133;-48
2023/04/27 10:02:36;;;;;;;0.62;0.62;;;;;;;23.79;34.94;99158.02;1890857;75;28080;-49
2023/04/27 10:05:44;;;;;;;0.90;0.90;;;;;;;23.75;34.94;99151.39;1890800;75;28201;-50
2023/04/27 10:08:35;;;;;;;0.70;0.70;;;;;;;23.81;34.95;99148.47;1865065;75;28219;-47
2023/04/27 10:11:26;;;;;;;0.98;0.88;;;;;;;23.80;34.98;99149.56;1892671;75;28177;-49
2023/04/27 10:14:19;;;;;;;1.10;1.00;;;;;;;23.82;34.91;99139.70;1869000;76;28127;-47
2023/04/27 10:17:10;;;;;;;0.83;0.83;;;;;;;23.83;34.89;99133.95;1876274;75;28071;-51
2023/04/27 10:20:01;;;;;;;0.93;0.93;;;;;;;23.85;34.87;99133.16;1865383;75;28179;-50
2023/04/27 10:22:50;;;;;;;0.95;0.95;;;;;;;23.84;34.87;99130.67;1868309;76;29037;-52
2023/04/27 10:25:40;;;;;;;1.12;1.00;;;;;;;23.85;34.87;99126.30;1857044;77;28770;-49
2023/04/27 10:28:31;;;;;;;1.00;1.00;;;;;;;23.87;34.84;99124.16;1890940;75;28078;-50
2023/04/27 10:31:22;;;;;;;1.17;1.07;;;;;;;23.89;34.82;99126.64;1880448;75;28153;-50
2023/04/27 10:34:13;;;;;;;0.95;0.95;;;;;;;23.91;34.80;99124.48;1892598;75;31192;-47
2023/04/27 10:37:09;;;;;;;0.80;0.80;;;;;;;23.91;34.78;99121.20;1868730;76;28129;-48
2023/04/27 10:40:01;;;;;;;1.00;1.00;;;;;;;23.91;34.77;99120.36;1883539;75;28137;-48
2023/04/27 10:42:49;;;;;;;1.20;1.00;;;;;;;23.90;34.80;99108.55;1884376;75;28103;-50
2023/04/27 10:45:38;;;;;;;0.95;0.95;;;;;;;23.90;34.80;99116.78;1869750;75;28123;-46
2023/04/27 10:48:26;;;;;;;0.80;0.80;;;;;;;23.91;34.79;99123.94;1883726;75;28099;-51
2023/04/27 10:51:17;;;;;;;1.20;1.10;;;;;;;23.92;34.78;99109.13;1884097;75;28191;-50
2023/04/27 10:54:06;;;;;;;0.95;0.95;;;;;;;23.95;34.75;99110.53;1883538;75;28163;-50
2023/04/27 10:56:55;;;;;;;0.90;0.80;;;;;;;23.97;34.74;99101.50;1896235;75;28056;-48
2023/04/27 10:59:54;;;;;;;0.90;0.90;;;;;;;23.95;34.74;99104.52;1857047;77;28067;-47
2023/04/27 11:02:42;;;;;;;0.90;0.90;;;;;;;23.97;34.75;99102.34;1900186;75;28188;-46
2023/04/27 11:05:32;;;;;;;1.00;1.00;;;;;;;23.96;34.80;99099.86;1863833;75;28236;-46
2023/04/27 11:08:20;;;;;;;1.50;0.95;;;;;;;23.95;34.76;99103.14;1867169;76;28200;-47
2023/04/27 11:11:11;;;;;;;0.90;0.90;;;;;;;23.98;34.74;99094.41;1857177;77;31113;-49
2023/04/27 11:14:02;;;;;;;0.70;0.70;;;;;;;23.98;34.75;99094.41;1875403;75;28120;-52
2023/04/27 11:16:50;;;;;;;0.93;0.90;;;;;;;23.96;34.75;99086.98;1886467;75;28105;-46
2023/04/27 11:19:48;;;;;;;1.00;1.00;;;;;;;23.99;34.77;99084.28;1896088;75;28084;-49
2023/04/27 11:22:44;;;;;;;1.30;1.20;;;;;;;23.99;34.76;99081.53;1872487;75;28128;-48
2023/04/27 11:25:33;;;;;;;0.65;0.65;;;;;;;23.98;34.76;99077.95;1868699;76;28210;-49
2023/04/27 11:28:23;;;;;;;1.17;0.90;;;;;;;23.98;34.75;99079.33;1862592;75;28090;-47
2023/04/27 11:31:12;;;;;;;0.62;0.62;;;;;;;23.98;34.81;99077.12;1895480;75;28328;-46
2023/04/27 11:34:00;;;;;;;0.80;0.80;;;;;;;24.01;34.76;99080.73;1884580;75;28181;-46
2023/04/27 11:37:01;;;;;;;0.70;0.70;;;;;;;24.01;34.76;99062.90;1896865;75;28169;-47
2023/04/27 11:39:51;;;;;;;0.70;0.70;;;;;;;24.03;34.74;99057.45;1888879;75;28159;-50
2023/04/27 11:42:42;;;;;;;1.37;0.68;;;;;;;24.01;34.76;99058.78;1898541;75;28170;-48
2023/04/27 11:45:30;;;;;;;0.90;0.90;;;;;;;24.03;34.71;99062.09;1885657;75;28067;-50
2023/04/27 11:48:18;;;;;;;0.90;0.90;;;;;;;24.02;34.76;99059.05;1868831;76;28051;-48
2023/04/27 11:51:09;;;;;;;0.73;0.73;;;;;;;24.03;34.74;99054.70;1880723;75;28062;-48
2023/04/27 11:54:03;;;;;;;0.95;0.80;;;;;;;24.04;34.73;99059.62;1868771;75;28100;-48
2023/04/27 11:56:51;;;;;;;0.65;0.65;;;;;;;24.04;34.68;99062.38;1870130;75;28242;-46
2023/04/27 11:59:40;;;;;;;0.90;0.90;;;;;;;24.05;34.70;99048.95;1868759;76;28181;-46
2023/04/27 12:02:30;;;;;;;0.60;0.60;;;;;;;24.05;34.69;99041.55;1878761;75;31017;-47
2023/04/27 12:05:19;;;;;;;0.80;0.80;;;;;;;24.07;34.70;99042.70;1868887;76;28150;-45
2023/04/27 12:08:08;;;;;;;1.00;0.90;;;;;;;24.07;34.69;99039.11;1874620;75;28125;-50
2023/04/27 12:10:56;;;;;;;0.77;0.77;;;;;;;24.07;34.66;99037.20;1898238;75;28132;-47
2023/04/27 12:13:46;;;;;;;0.70;0.70;;;;;;;24.07;34.67;99039.11;1888978;75;28125;-46
2023/04/27 12:16:34;;;;;;;0.77;0.77;;;;;;;24.06;34.68;99034.19;1896821;75;28305;-51
2023/04/27 12:19:29;;;;;;;0.70;0.70;;;;;;;24.07;34.69;99035.83;1886581;75;28080;-47
2023/04/27 12:22:12;;;;;;;0.80;0.80;;;;;;;24.08;34.69;99037.51;1884637;75;28060;-50
2023/04/27 12:25:01;;;;;;;0.90;0.90;;;;;;;24.08;34.66;99039.41;1884724;75;28128;-51
2023/04/27 12:27:50;;;;;;;1.37;0.72;;;;;;;24.07;34.68;99034.46;1884921;75;28092;-47
2023/04/27 12:30:39;;;;;;;0.82;0.82;;;;;;;24.08;34.70;99029.81;1895473;75;28184;-50
2023/04/27 12:33:27;;;;;;;1.90;0.80;;;;;;;24.10;34.65;99033.96;1867322;75;28130;-48
2023/04/27 12:36:16;;;;;;;0.80;0.80;;;;;;;24.09;34.65;99039.15;1876449;75;28338;-48
2023/04/27 12:39:19;;;;;;;0.88;0.88;;;;;;;24.11;34.60;99034.80;1875009;75;28206;-50
2023/04/27 12:42:08;;;;;;;0.75;0.75;;;;;;;24.09;34.62;99032.29;1885225;75;28267;-50
2023/04/27 12:44:56;;;;;;;0.80;0.80;;;;;;;24.10;34.62;99023.52;1856683;77;28291;-47
2023/04/27 12:47:45;;;;;;;1.00;1.00;;;;;;;24.01;34.62;99017.06;1872136;75;28270;-48
2023/04/27 12:50:35;;;;;;;0.90;0.90;;;;;;;24.09;34.63;99033.66;1888255;75;28327;-48
2023/04/27 12:53:23;;;;;;;0.93;0.93;;;;;;;24.09;34.64;99032.82;1887211;75;28103;-52
2023/04/27 12:56:12;;;;;;;0.70;0.70;;;;;;;24.11;34.60;99034.23;1889793;75;28237;-46
2023/04/27 12:59:00;;;;;;;1.02;1.00;;;;;;;24.11;34.60;99032.86;1880687;75;28144;-46
2023/04/27 13:01:49;;;;;;;1.60;1.15;;;;;;;24.12;34.55;99026.84;1896238;75;28211;-49
2023/04/27 13:04:37;;;;;;;1.05;1.00;;;;;;;24.10;34.58;99024.36;1870270;75;28270;-46
2023/04/27 13:07:25;;;;;;;0.62;0.62;;;;;;;24.13;34.56;99030.72;1893653;75;28278;-50
2023/04/27 13:10:14;;;;;;;0.88;0.88;;;;;;;24.13;34.52;99030.72;1867695;76;28211;-49
2023/04/27 13:13:02;;;;;;;1.77;0.90;;;;;;;24.13;34.51;99037.58;1881934;75;28156;-47
2023/04/27 13:15:51;;;;;;;0.90;0.90;;;;;;;24.14;34.50;99033.73;1856964;76;28207;-47
2023/04/27 13:18:46;;;;;;;0.85;0.85;;;;;;;24.13;34.50;99031.25;1888811;75;28086;-50